KBVU

Boulder City Municipal Airport

Boulder City, Nevada, USA
METAR KBVU 190655Z AUTO 07006KT 10SM FEW038 BKN047 BKN055 13/01 A3003 RMK AO2
Observed Flight Rules
Jan-19 @ 06:55 UTC (22 minutes ago) Visual Flight Rules
Wind Visibility Clouds
70° at 6 knots 10 miles
  • Few at 3,800' AGL
  • Broken at 4,700' AGL
  • Broken at 5,500' AGL
Temperatures Readings
Current 13°C / 55°F
Dewpoint 1°C / 34°F
Humidity 44%
Altimeter 30.03" Hg
Pressure 1017 hPa
Elevation 671
METAR KBVU 190655Z AUTO 07006KT 10SM FEW038 BKN047 BKN055 13/01 A3003 RMK AO2
Observed Flight Rules
Jan-19 @ 06:55 UTC
(22 minutes ago)
VFR
Wind Visibility
70° at 6 knots 10 miles
Clouds
  • Few at 3,800' AGL
  • Broken at 4,700' AGL
  • Broken at 5,500' AGL
Temperature Dewpoint
13°C / 55°F 1°C / 34°F
Humidity Altimeter Pressure
44% 30.03" Hg 1017 hPa